sensor_id;sensor_type;location;lat;lon;timestamp;pressure;altitude;pressure_sealevel;temperature
63220;BMP180;49320;52.512;13.448;2022-09-13T00:01:08;100828.00;;;21.90
63220;BMP180;49320;52.512;13.448;2022-09-13T00:03:35;100825.00;;;21.90
63220;BMP180;49320;52.512;13.448;2022-09-13T00:06:12;100815.00;;;21.80
63220;BMP180;49320;52.512;13.448;2022-09-13T00:08:40;100812.00;;;21.80
63220;BMP180;49320;52.512;13.448;2022-09-13T00:11:18;100816.00;;;21.80
63220;BMP180;49320;52.512;13.448;2022-09-13T00:13:46;100802.00;;;21.80
63220;BMP180;49320;52.512;13.448;2022-09-13T00:16:16;100816.00;;;21.80
63220;BMP180;49320;52.512;13.448;2022-09-13T00:18:44;100801.00;;;21.80
63220;BMP180;49320;52.512;13.448;2022-09-13T00:21:15;100795.00;;;21.80
63220;BMP180;49320;52.512;13.448;2022-09-13T00:23:47;100794.00;;;21.70
63220;BMP180;49320;52.512;13.448;2022-09-13T00:26:21;100794.00;;;21.70
63220;BMP180;49320;52.512;13.448;2022-09-13T00:28:55;100792.00;;;21.70
63220;BMP180;49320;52.512;13.448;2022-09-13T00:31:24;100781.00;;;21.70
63220;BMP180;49320;52.512;13.448;2022-09-13T00:33:53;100786.00;;;21.60
63220;BMP180;49320;52.512;13.448;2022-09-13T00:36:20;100767.00;;;21.60
63220;BMP180;49320;52.512;13.448;2022-09-13T00:38:47;100759.00;;;21.60
63220;BMP180;49320;52.512;13.448;2022-09-13T00:41:16;100760.00;;;21.60
63220;BMP180;49320;52.512;13.448;2022-09-13T00:43:53;100758.00;;;21.60
63220;BMP180;49320;52.512;13.448;2022-09-13T00:46:38;100746.00;;;21.50
63220;BMP180;49320;52.512;13.448;2022-09-13T00:49:30;100746.00;;;21.50
63220;BMP180;49320;52.512;13.448;2022-09-13T00:52:04;100730.00;;;21.50
63220;BMP180;49320;52.512;13.448;2022-09-13T00:54:45;100728.00;;;21.50
63220;BMP180;49320;52.512;13.448;2022-09-13T00:57:16;100726.00;;;21.50
63220;BMP180;49320;52.512;13.448;2022-09-13T00:59:59;100728.00;;;21.50
63220;BMP180;49320;52.512;13.448;2022-09-13T01:02:27;100719.00;;;21.40
63220;BMP180;49320;52.512;13.448;2022-09-13T01:04:55;100726.00;;;21.40
63220;BMP180;49320;52.512;13.448;2022-09-13T01:07:22;100716.00;;;21.40
63220;BMP180;49320;52.512;13.448;2022-09-13T01:09:50;100718.00;;;21.40
63220;BMP180;49320;52.512;13.448;2022-09-13T01:15:15;100718.00;;;21.40
63220;BMP180;49320;52.512;13.448;2022-09-13T01:17:43;100717.00;;;21.40
63220;BMP180;49320;52.512;13.448;2022-09-13T01:20:11;100711.00;;;21.40
63220;BMP180;49320;52.512;13.448;2022-09-13T01:23:15;100719.00;;;21.40
63220;BMP180;49320;52.512;13.448;2022-09-13T01:26:25;100710.00;;;21.30
63220;BMP180;49320;52.512;13.448;2022-09-13T01:30:03;100693.00;;;21.30
63220;BMP180;49320;52.512;13.448;2022-09-13T01:33:27;100714.00;;;21.20
63220;BMP180;49320;52.512;13.448;2022-09-13T01:39:46;100711.00;;;21.20
63220;BMP180;49320;52.512;13.448;2022-09-13T01:46:02;100702.00;;;21.20
63220;BMP180;49320;52.512;13.448;2022-09-13T01:48:58;100692.00;;;21.20
63220;BMP180;49320;52.512;13.448;2022-09-13T01:51:32;100689.00;;;21.10
63220;BMP180;49320;52.512;13.448;2022-09-13T01:54:27;100680.00;;;21.10
63220;BMP180;49320;52.512;13.448;2022-09-13T01:57:11;100668.00;;;21.10
63220;BMP180;49320;52.512;13.448;2022-09-13T01:59:52;100685.00;;;21.10
63220;BMP180;49320;52.512;13.448;2022-09-13T02:02:45;100686.00;;;21.10
63220;BMP180;49320;52.512;13.448;2022-09-13T02:05:24;100674.00;;;21.10
63220;BMP180;49320;52.512;13.448;2022-09-13T02:07:59;100670.00;;;21.00
63220;BMP180;49320;52.512;13.448;2022-09-13T02:10:39;100671.00;;;21.00
63220;BMP180;49320;52.512;13.448;2022-09-13T02:13:14;100659.00;;;21.00
63220;BMP180;49320;52.512;13.448;2022-09-13T02:15:53;100664.00;;;21.00
63220;BMP180;49320;52.512;13.448;2022-09-13T02:18:34;100663.00;;;21.00
63220;BMP180;49320;52.512;13.448;2022-09-13T02:21:11;100660.00;;;21.00
63220;BMP180;49320;52.512;13.448;2022-09-13T02:23:47;100657.00;;;21.00
63220;BMP180;49320;52.512;13.448;2022-09-13T02:26:19;100658.00;;;20.90
63220;BMP180;49320;52.512;13.448;2022-09-13T02:28:51;100660.00;;;20.90
63220;BMP180;49320;52.512;13.448;2022-09-13T02:31:32;100648.00;;;20.90
63220;BMP180;49320;52.512;13.448;2022-09-13T02:34:07;100653.00;;;20.90
63220;BMP180;49320;52.512;13.448;2022-09-13T02:36:39;100646.00;;;20.90
63220;BMP180;49320;52.512;13.448;2022-09-13T02:39:15;100628.00;;;20.90
63220;BMP180;49320;52.512;13.448;2022-09-13T02:41:58;100633.00;;;20.90
63220;BMP180;49320;52.512;13.448;2022-09-13T02:44:40;100622.00;;;20.90
63220;BMP180;49320;52.512;13.448;2022-09-13T02:47:56;100620.00;;;20.80
63220;BMP180;49320;52.512;13.448;2022-09-13T02:50:59;100613.00;;;20.80
63220;BMP180;49320;52.512;13.448;2022-09-13T02:53:54;100623.00;;;20.80
63220;BMP180;49320;52.512;13.448;2022-09-13T02:56:50;100618.00;;;20.80
63220;BMP180;49320;52.512;13.448;2022-09-13T02:59:22;100621.00;;;20.80
63220;BMP180;49320;52.512;13.448;2022-09-13T03:02:07;100608.00;;;20.80
63220;BMP180;49320;52.512;13.448;2022-09-13T03:04:35;100601.00;;;20.90
63220;BMP180;49320;52.512;13.448;2022-09-13T03:07:03;100600.00;;;20.90
63220;BMP180;49320;52.512;13.448;2022-09-13T03:09:32;100596.00;;;20.90
63220;BMP180;49320;52.512;13.448;2022-09-13T03:12:38;100586.00;;;20.90
63220;BMP180;49320;52.512;13.448;2022-09-13T03:18:22;100565.00;;;20.90
63220;BMP180;49320;52.512;13.448;2022-09-13T03:27:40;100569.00;;;20.90
63220;BMP180;49320;52.512;13.448;2022-09-13T03:30:15;100561.00;;;20.90
63220;BMP180;49320;52.512;13.448;2022-09-13T03:33:09;100552.00;;;20.90
63220;BMP180;49320;52.512;13.448;2022-09-13T03:36:23;100559.00;;;20.90
63220;BMP180;49320;52.512;13.448;2022-09-13T03:39:11;100558.00;;;20.90
63220;BMP180;49320;52.512;13.448;2022-09-13T03:41:47;100555.00;;;20.90
63220;BMP180;49320;52.512;13.448;2022-09-13T03:44:20;100563.00;;;20.90
63220;BMP180;49320;52.512;13.448;2022-09-13T03:46:54;100559.00;;;20.90
63220;BMP180;49320;52.512;13.448;2022-09-13T03:49:26;100564.00;;;21.00
63220;BMP180;49320;52.512;13.448;2022-09-13T03:51:54;100575.00;;;21.00
63220;BMP180;49320;52.512;13.448;2022-09-13T03:54:30;100561.00;;;21.00
63220;BMP180;49320;52.512;13.448;2022-09-13T03:57:16;100561.00;;;21.00
63220;BMP180;49320;52.512;13.448;2022-09-13T03:59:53;100556.00;;;21.00
63220;BMP180;49320;52.512;13.448;2022-09-13T04:02:23;100547.00;;;21.00
63220;BMP180;49320;52.512;13.448;2022-09-13T04:04:51;100551.00;;;21.00
63220;BMP180;49320;52.512;13.448;2022-09-13T04:07:22;100535.00;;;21.00
63220;BMP180;49320;52.512;13.448;2022-09-13T04:09:49;100539.00;;;21.00
63220;BMP180;49320;52.512;13.448;2022-09-13T04:12:17;100531.00;;;21.00
63220;BMP180;49320;52.512;13.448;2022-09-13T04:14:44;100530.00;;;21.00
63220;BMP180;49320;52.512;13.448;2022-09-13T04:17:12;100526.00;;;21.00
63220;BMP180;49320;52.512;13.448;2022-09-13T04:19:39;100538.00;;;21.10
63220;BMP180;49320;52.512;13.448;2022-09-13T04:22:06;100522.00;;;21.10
63220;BMP180;49320;52.512;13.448;2022-09-13T04:24:33;100533.00;;;21.10
63220;BMP180;49320;52.512;13.448;2022-09-13T04:27:00;100514.00;;;21.10
63220;BMP180;49320;52.512;13.448;2022-09-13T04:29:27;100522.00;;;21.10
63220;BMP180;49320;52.512;13.448;2022-09-13T04:31:55;100518.00;;;21.10
63220;BMP180;49320;52.512;13.448;2022-09-13T04:34:22;100515.00;;;21.20
63220;BMP180;49320;52.512;13.448;2022-09-13T04:36:51;100522.00;;;21.20
63220;BMP180;49320;52.512;13.448;2022-09-13T04:39:19;100502.00;;;21.20
63220;BMP180;49320;52.512;13.448;2022-09-13T04:41:48;100499.00;;;21.20
63220;BMP180;49320;52.512;13.448;2022-09-13T04:44:17;100504.00;;;21.20
63220;BMP180;49320;52.512;13.448;2022-09-13T04:46:46;100510.00;;;21.30
63220;BMP180;49320;52.512;13.448;2022-09-13T04:49:16;100507.00;;;21.20
63220;BMP180;49320;52.512;13.448;2022-09-13T04:51:43;100498.00;;;21.30
63220;BMP180;49320;52.512;13.448;2022-09-13T04:54:11;100489.00;;;21.30
63220;BMP180;49320;52.512;13.448;2022-09-13T04:56:42;100493.00;;;21.30
63220;BMP180;49320;52.512;13.448;2022-09-13T04:59:10;100486.00;;;21.30
63220;BMP180;49320;52.512;13.448;2022-09-13T05:01:37;100484.00;;;21.40
63220;BMP180;49320;52.512;13.448;2022-09-13T05:04:06;100486.00;;;21.40
63220;BMP180;49320;52.512;13.448;2022-09-13T05:06:33;100484.00;;;21.40
63220;BMP180;49320;52.512;13.448;2022-09-13T05:09:00;100475.00;;;21.40
63220;BMP180;49320;52.512;13.448;2022-09-13T05:11:28;100475.00;;;21.50
63220;BMP180;49320;52.512;13.448;2022-09-13T05:13:58;100469.00;;;21.50
63220;BMP180;49320;52.512;13.448;2022-09-13T05:16:28;100485.00;;;21.60
63220;BMP180;49320;52.512;13.448;2022-09-13T05:18:55;100474.00;;;21.60
63220;BMP180;49320;52.512;13.448;2022-09-13T05:21:23;100469.00;;;21.60
63220;BMP180;49320;52.512;13.448;2022-09-13T05:23:51;100458.00;;;21.70
63220;BMP180;49320;52.512;13.448;2022-09-13T05:26:22;100454.00;;;21.70
63220;BMP180;49320;52.512;13.448;2022-09-13T05:28:49;100438.00;;;21.80
63220;BMP180;49320;52.512;13.448;2022-09-13T05:31:24;100448.00;;;21.80
63220;BMP180;49320;52.512;13.448;2022-09-13T05:34:02;100459.00;;;21.80
63220;BMP180;49320;52.512;13.448;2022-09-13T05:36:31;100460.00;;;21.80
63220;BMP180;49320;52.512;13.448;2022-09-13T05:38:57;100454.00;;;21.90
63220;BMP180;49320;52.512;13.448;2022-09-13T05:41:44;100451.00;;;21.90
63220;BMP180;49320;52.512;13.448;2022-09-13T05:44:11;100453.00;;;21.90
63220;BMP180;49320;52.512;13.448;2022-09-13T05:46:40;100458.00;;;22.00
63220;BMP180;49320;52.512;13.448;2022-09-13T05:49:08;100445.00;;;22.00
63220;BMP180;49320;52.512;13.448;2022-09-13T05:51:35;100451.00;;;22.00
63220;BMP180;49320;52.512;13.448;2022-09-13T05:54:02;100449.00;;;22.10
63220;BMP180;49320;52.512;13.448;2022-09-13T05:56:29;100457.00;;;22.10
63220;BMP180;49320;52.512;13.448;2022-09-13T05:58:58;100457.00;;;22.10
63220;BMP180;49320;52.512;13.448;2022-09-13T06:01:27;100463.00;;;22.10
63220;BMP180;49320;52.512;13.448;2022-09-13T06:03:56;100476.00;;;22.10
63220;BMP180;49320;52.512;13.448;2022-09-13T06:06:24;100468.00;;;22.10
63220;BMP180;49320;52.512;13.448;2022-09-13T06:08:53;100482.00;;;22.10
63220;BMP180;49320;52.512;13.448;2022-09-13T06:11:20;100474.00;;;22.10
63220;BMP180;49320;52.512;13.448;2022-09-13T06:13:47;100476.00;;;22.10
63220;BMP180;49320;52.512;13.448;2022-09-13T06:16:14;100484.00;;;22.10
63220;BMP180;49320;52.512;13.448;2022-09-13T06:18:43;100486.00;;;22.00
63220;BMP180;49320;52.512;13.448;2022-09-13T06:21:18;100483.00;;;22.00
63220;BMP180;49320;52.512;13.448;2022-09-13T06:23:50;100476.00;;;22.00
63220;BMP180;49320;52.512;13.448;2022-09-13T06:26:24;100477.00;;;22.00
63220;BMP180;49320;52.512;13.448;2022-09-13T06:28:54;100503.00;;;21.90
63220;BMP180;49320;52.512;13.448;2022-09-13T06:31:25;100491.00;;;21.90
63220;BMP180;49320;52.512;13.448;2022-09-13T06:34:00;100497.00;;;21.90
63220;BMP180;49320;52.512;13.448;2022-09-13T06:36:31;100496.00;;;21.90
63220;BMP180;49320;52.512;13.448;2022-09-13T06:38:57;100496.00;;;21.90
63220;BMP180;49320;52.512;13.448;2022-09-13T06:41:26;100498.00;;;21.90
63220;BMP180;49320;52.512;13.448;2022-09-13T06:43:56;100511.00;;;21.80
63220;BMP180;49320;52.512;13.448;2022-09-13T06:46:28;100498.00;;;21.80
63220;BMP180;49320;52.512;13.448;2022-09-13T06:49:02;100490.00;;;21.90
63220;BMP180;49320;52.512;13.448;2022-09-13T06:51:31;100470.00;;;21.90
63220;BMP180;49320;52.512;13.448;2022-09-13T06:53:59;100474.00;;;22.00
63220;BMP180;49320;52.512;13.448;2022-09-13T06:56:33;100465.00;;;22.00
63220;BMP180;49320;52.512;13.448;2022-09-13T06:59:04;100473.00;;;22.10
63220;BMP180;49320;52.512;13.448;2022-09-13T07:01:37;100471.00;;;22.20
63220;BMP180;49320;52.512;13.448;2022-09-13T07:04:07;100447.00;;;22.30
63220;BMP180;49320;52.512;13.448;2022-09-13T07:06:38;100444.00;;;22.40
63220;BMP180;49320;52.512;13.448;2022-09-13T07:09:08;100447.00;;;22.40
63220;BMP180;49320;52.512;13.448;2022-09-13T07:11:39;100451.00;;;22.50
63220;BMP180;49320;52.512;13.448;2022-09-13T07:14:07;100453.00;;;22.60
63220;BMP180;49320;52.512;13.448;2022-09-13T07:16:36;100448.00;;;22.70
63220;BMP180;49320;52.512;13.448;2022-09-13T07:19:09;100438.00;;;22.80
63220;BMP180;49320;52.512;13.448;2022-09-13T07:21:37;100432.00;;;22.90
63220;BMP180;49320;52.512;13.448;2022-09-13T07:24:05;100429.00;;;23.00
63220;BMP180;49320;52.512;13.448;2022-09-13T07:26:32;100441.00;;;23.00
63220;BMP180;49320;52.512;13.448;2022-09-13T07:29:02;100440.00;;;23.00
63220;BMP180;49320;52.512;13.448;2022-09-13T07:31:32;100441.00;;;23.10
63220;BMP180;49320;52.512;13.448;2022-09-13T07:34:05;100435.00;;;23.10
63220;BMP180;49320;52.512;13.448;2022-09-13T07:36:35;100437.00;;;23.20
63220;BMP180;49320;52.512;13.448;2022-09-13T07:39:03;100437.00;;;23.20
63220;BMP180;49320;52.512;13.448;2022-09-13T07:41:32;100440.00;;;23.30
63220;BMP180;49320;52.512;13.448;2022-09-13T07:44:00;100450.00;;;23.40
63220;BMP180;49320;52.512;13.448;2022-09-13T07:46:30;100445.00;;;23.40
63220;BMP180;49320;52.512;13.448;2022-09-13T07:49:01;100443.00;;;23.50
63220;BMP180;49320;52.512;13.448;2022-09-13T07:51:31;100438.00;;;23.50
63220;BMP180;49320;52.512;13.448;2022-09-13T07:54:02;100434.00;;;23.60
63220;BMP180;49320;52.512;13.448;2022-09-13T07:56:33;100432.00;;;23.70
63220;BMP180;49320;52.512;13.448;2022-09-13T07:59:04;100441.00;;;23.70
63220;BMP180;49320;52.512;13.448;2022-09-13T08:01:42;100431.00;;;23.80
63220;BMP180;49320;52.512;13.448;2022-09-13T08:04:16;100432.00;;;23.90
63220;BMP180;49320;52.512;13.448;2022-09-13T08:06:44;100420.00;;;24.00
63220;BMP180;49320;52.512;13.448;2022-09-13T08:09:13;100411.00;;;24.00
63220;BMP180;49320;52.512;13.448;2022-09-13T08:11:46;100415.00;;;24.10
63220;BMP180;49320;52.512;13.448;2022-09-13T08:14:16;100428.00;;;24.20
63220;BMP180;49320;52.512;13.448;2022-09-13T08:16:44;100426.00;;;24.30
63220;BMP180;49320;52.512;13.448;2022-09-13T08:19:17;100438.00;;;24.40
63220;BMP180;49320;52.512;13.448;2022-09-13T08:21:45;100421.00;;;24.60
63220;BMP180;49320;52.512;13.448;2022-09-13T08:24:16;100416.00;;;24.60
63220;BMP180;49320;52.512;13.448;2022-09-13T08:26:44;100414.00;;;24.70
63220;BMP180;49320;52.512;13.448;2022-09-13T08:29:13;100420.00;;;24.90
63220;BMP180;49320;52.512;13.448;2022-09-13T08:31:40;100428.00;;;24.90
63220;BMP180;49320;52.512;13.448;2022-09-13T08:34:14;100429.00;;;25.00
63220;BMP180;49320;52.512;13.448;2022-09-13T08:36:42;100437.00;;;25.10
63220;BMP180;49320;52.512;13.448;2022-09-13T08:39:10;100436.00;;;25.20
63220;BMP180;49320;52.512;13.448;2022-09-13T08:44:29;100434.00;;;25.30
63220;BMP180;49320;52.512;13.448;2022-09-13T08:47:46;100435.00;;;25.30
63220;BMP180;49320;52.512;13.448;2022-09-13T08:50:18;100442.00;;;25.30
63220;BMP180;49320;52.512;13.448;2022-09-13T08:53:14;100441.00;;;25.50
63220;BMP180;49320;52.512;13.448;2022-09-13T08:55:57;100437.00;;;25.60
63220;BMP180;49320;52.512;13.448;2022-09-13T08:59:23;100435.00;;;25.60
63220;BMP180;49320;52.512;13.448;2022-09-13T09:02:29;100429.00;;;25.70
63220;BMP180;49320;52.512;13.448;2022-09-13T09:05:17;100419.00;;;25.70
63220;BMP180;49320;52.512;13.448;2022-09-13T09:07:56;100421.00;;;25.80
63220;BMP180;49320;52.512;13.448;2022-09-13T09:10:58;100415.00;;;25.90
63220;BMP180;49320;52.512;13.448;2022-09-13T09:13:59;100408.00;;;26.00
63220;BMP180;49320;52.512;13.448;2022-09-13T09:19:16;100425.00;;;26.10
63220;BMP180;49320;52.512;13.448;2022-09-13T09:21:47;100416.00;;;26.10
63220;BMP180;49320;52.512;13.448;2022-09-13T09:24:23;100415.00;;;26.10
63220;BMP180;49320;52.512;13.448;2022-09-13T09:26:55;100424.00;;;26.10
63220;BMP180;49320;52.512;13.448;2022-09-13T09:29:30;100427.00;;;26.20
63220;BMP180;49320;52.512;13.448;2022-09-13T09:35:43;100427.00;;;26.30
63220;BMP180;49320;52.512;13.448;2022-09-13T09:38:42;100416.00;;;26.30
63220;BMP180;49320;52.512;13.448;2022-09-13T09:41:27;100416.00;;;26.40
63220;BMP180;49320;52.512;13.448;2022-09-13T09:43:59;100403.00;;;26.40
63220;BMP180;49320;52.512;13.448;2022-09-13T09:46:32;100416.00;;;26.50
63220;BMP180;49320;52.512;13.448;2022-09-13T09:49:18;100403.00;;;26.60
63220;BMP180;49320;52.512;13.448;2022-09-13T09:52:09;100420.00;;;26.60
63220;BMP180;49320;52.512;13.448;2022-09-13T09:54:36;100409.00;;;26.70
63220;BMP180;49320;52.512;13.448;2022-09-13T09:57:05;100423.00;;;26.80
63220;BMP180;49320;52.512;13.448;2022-09-13T09:59:34;100422.00;;;26.90
63220;BMP180;49320;52.512;13.448;2022-09-13T10:02:17;100407.00;;;27.10
63220;BMP180;49320;52.512;13.448;2022-09-13T10:05:00;100413.00;;;27.20
63220;BMP180;49320;52.512;13.448;2022-09-13T10:07:32;100398.00;;;27.40
63220;BMP180;49320;52.512;13.448;2022-09-13T10:10:07;100394.00;;;27.50
63220;BMP180;49320;52.512;13.448;2022-09-13T10:12:51;100386.00;;;27.60
63220;BMP180;49320;52.512;13.448;2022-09-13T10:15:23;100386.00;;;27.70
63220;BMP180;49320;52.512;13.448;2022-09-13T10:18:14;100390.00;;;27.80
63220;BMP180;49320;52.512;13.448;2022-09-13T10:23:45;100398.00;;;28.00
63220;BMP180;49320;52.512;13.448;2022-09-13T10:26:20;100403.00;;;28.00
63220;BMP180;49320;52.512;13.448;2022-09-13T10:31:20;100386.00;;;28.20
63220;BMP180;49320;52.512;13.448;2022-09-13T10:36:22;100375.00;;;28.40
63220;BMP180;49320;52.512;13.448;2022-09-13T10:39:18;100382.00;;;28.50
63220;BMP180;49320;52.512;13.448;2022-09-13T10:41:55;100381.00;;;28.60
63220;BMP180;49320;52.512;13.448;2022-09-13T10:44:56;100379.00;;;28.60
63220;BMP180;49320;52.512;13.448;2022-09-13T10:47:43;100380.00;;;28.70
63220;BMP180;49320;52.512;13.448;2022-09-13T10:50:24;100368.00;;;28.70
63220;BMP180;49320;52.512;13.448;2022-09-13T10:55:37;100367.00;;;28.90
63220;BMP180;49320;52.512;13.448;2022-09-13T11:01:07;100375.00;;;28.90
63220;BMP180;49320;52.512;13.448;2022-09-13T11:04:09;100372.00;;;28.80
63220;BMP180;49320;52.512;13.448;2022-09-13T11:07:07;100377.00;;;28.70
63220;BMP180;49320;52.512;13.448;2022-09-13T11:13:02;100381.00;;;28.60
63220;BMP180;49320;52.512;13.448;2022-09-13T11:18:40;100374.00;;;28.50
63220;BMP180;49320;52.512;13.448;2022-09-13T11:24:28;100374.00;;;28.40
63220;BMP180;49320;52.512;13.448;2022-09-13T11:27:21;100357.00;;;28.30
63220;BMP180;49320;52.512;13.448;2022-09-13T11:30:18;100364.00;;;28.20
63220;BMP180;49320;52.512;13.448;2022-09-13T11:35:59;100359.00;;;28.20
63220;BMP180;49320;52.512;13.448;2022-09-13T11:39:10;100361.00;;;28.10
63220;BMP180;49320;52.512;13.448;2022-09-13T11:47:50;100368.00;;;27.90
63220;BMP180;49320;52.512;13.448;2022-09-13T11:53:55;100366.00;;;27.90
63220;BMP180;49320;52.512;13.448;2022-09-13T11:56:49;100366.00;;;27.80
63220;BMP180;49320;52.512;13.448;2022-09-13T11:59:48;100361.00;;;27.70
63220;BMP180;49320;52.512;13.448;2022-09-13T12:02:48;100360.00;;;27.70
63220;BMP180;49320;52.512;13.448;2022-09-13T12:05:22;100350.00;;;27.70
63220;BMP180;49320;52.512;13.448;2022-09-13T12:08:05;100360.00;;;27.70
63220;BMP180;49320;52.512;13.448;2022-09-13T12:11:02;100358.00;;;27.60
63220;BMP180;49320;52.512;13.448;2022-09-13T12:13:41;100362.00;;;27.60
63220;BMP180;49320;52.512;13.448;2022-09-13T12:16:20;100364.00;;;27.50
63220;BMP180;49320;52.512;13.448;2022-09-13T12:18:53;100365.00;;;27.50
63220;BMP180;49320;52.512;13.448;2022-09-13T12:21:29;100365.00;;;27.40
63220;BMP180;49320;52.512;13.448;2022-09-13T12:26:55;100362.00;;;27.30
63220;BMP180;49320;52.512;13.448;2022-09-13T12:29:32;100361.00;;;27.20
63220;BMP180;49320;52.512;13.448;2022-09-13T12:32:05;100366.00;;;27.20
63220;BMP180;49320;52.512;13.448;2022-09-13T12:41:04;100373.00;;;26.80
63220;BMP180;49320;52.512;13.448;2022-09-13T12:44:18;100363.00;;;26.70
63220;BMP180;49320;52.512;13.448;2022-09-13T12:50:25;100367.00;;;26.60
63220;BMP180;49320;52.512;13.448;2022-09-13T12:57:22;100353.00;;;26.70
63220;BMP180;49320;52.512;13.448;2022-09-13T13:00:22;100352.00;;;26.70
63220;BMP180;49320;52.512;13.448;2022-09-13T13:03:12;100360.00;;;26.70
63220;BMP180;49320;52.512;13.448;2022-09-13T13:05:54;100349.00;;;26.70
63220;BMP180;49320;52.512;13.448;2022-09-13T13:08:32;100352.00;;;26.70
63220;BMP180;49320;52.512;13.448;2022-09-13T13:11:10;100348.00;;;26.80
63220;BMP180;49320;52.512;13.448;2022-09-13T13:13:42;100345.00;;;26.80
63220;BMP180;49320;52.512;13.448;2022-09-13T13:16:34;100342.00;;;26.80
63220;BMP180;49320;52.512;13.448;2022-09-13T13:19:26;100339.00;;;26.80
63220;BMP180;49320;52.512;13.448;2022-09-13T13:21:52;100341.00;;;26.90
63220;BMP180;49320;52.512;13.448;2022-09-13T13:26:53;100339.00;;;27.00
63220;BMP180;49320;52.512;13.448;2022-09-13T13:34:49;100335.00;;;26.80
63220;BMP180;49320;52.512;13.448;2022-09-13T13:39:49;100325.00;;;26.80
63220;BMP180;49320;52.512;13.448;2022-09-13T13:42:35;100317.00;;;26.80
63220;BMP180;49320;52.512;13.448;2022-09-13T13:45:18;100314.00;;;26.80
63220;BMP180;49320;52.512;13.448;2022-09-13T13:48:05;100308.00;;;26.90
63220;BMP180;49320;52.512;13.448;2022-09-13T13:50:33;100317.00;;;26.90
63220;BMP180;49320;52.512;13.448;2022-09-13T13:53:30;100316.00;;;27.00
63220;BMP180;49320;52.512;13.448;2022-09-13T13:56:27;100315.00;;;27.00
63220;BMP180;49320;52.512;13.448;2022-09-13T13:59:20;100311.00;;;27.10
63220;BMP180;49320;52.512;13.448;2022-09-13T14:01:53;100311.00;;;27.10
63220;BMP180;49320;52.512;13.448;2022-09-13T14:04:56;100317.00;;;27.10
63220;BMP180;49320;52.512;13.448;2022-09-13T14:13:41;100303.00;;;27.20
63220;BMP180;49320;52.512;13.448;2022-09-13T14:16:30;100315.00;;;27.20
63220;BMP180;49320;52.512;13.448;2022-09-13T14:21:33;100296.00;;;27.40
63220;BMP180;49320;52.512;13.448;2022-09-13T14:24:20;100294.00;;;27.60
63220;BMP180;49320;52.512;13.448;2022-09-13T14:26:56;100303.00;;;27.70
63220;BMP180;49320;52.512;13.448;2022-09-13T14:29:24;100309.00;;;27.80
63220;BMP180;49320;52.512;13.448;2022-09-13T14:32:04;100300.00;;;27.80
63220;BMP180;49320;52.512;13.448;2022-09-13T14:34:36;100307.00;;;27.90
63220;BMP180;49320;52.512;13.448;2022-09-13T14:37:15;100303.00;;;28.00
63220;BMP180;49320;52.512;13.448;2022-09-13T14:42:45;100311.00;;;28.00
63220;BMP180;49320;52.512;13.448;2022-09-13T14:45:29;100306.00;;;28.00
63220;BMP180;49320;52.512;13.448;2022-09-13T14:48:20;100308.00;;;27.90
63220;BMP180;49320;52.512;13.448;2022-09-13T14:50:56;100302.00;;;27.90
63220;BMP180;49320;52.512;13.448;2022-09-13T14:53:30;100295.00;;;27.90
63220;BMP180;49320;52.512;13.448;2022-09-13T14:56:14;100294.00;;;27.90
63220;BMP180;49320;52.512;13.448;2022-09-13T14:58:52;100288.00;;;28.00
63220;BMP180;49320;52.512;13.448;2022-09-13T15:01:29;100292.00;;;28.10
63220;BMP180;49320;52.512;13.448;2022-09-13T15:03:59;100287.00;;;28.10
63220;BMP180;49320;52.512;13.448;2022-09-13T15:06:36;100285.00;;;28.00
63220;BMP180;49320;52.512;13.448;2022-09-13T15:11:55;100282.00;;;28.00
63220;BMP180;49320;52.512;13.448;2022-09-13T15:14:34;100280.00;;;27.90
63220;BMP180;49320;52.512;13.448;2022-09-13T15:19:40;100278.00;;;28.00
63220;BMP180;49320;52.512;13.448;2022-09-13T15:22:18;100274.00;;;28.00
63220;BMP180;49320;52.512;13.448;2022-09-13T15:24:58;100286.00;;;28.00
63220;BMP180;49320;52.512;13.448;2022-09-13T15:27:30;100270.00;;;28.00
63220;BMP180;49320;52.512;13.448;2022-09-13T15:30:04;100269.00;;;28.00
63220;BMP180;49320;52.512;13.448;2022-09-13T15:32:41;100274.00;;;28.00
63220;BMP180;49320;52.512;13.448;2022-09-13T15:35:29;100275.00;;;28.10
63220;BMP180;49320;52.512;13.448;2022-09-13T15:38:29;100264.00;;;28.10
63220;BMP180;49320;52.512;13.448;2022-09-13T15:41:15;100255.00;;;28.10
63220;BMP180;49320;52.512;13.448;2022-09-13T15:43:47;100262.00;;;28.10
63220;BMP180;49320;52.512;13.448;2022-09-13T15:46:15;100266.00;;;28.10
63220;BMP180;49320;52.512;13.448;2022-09-13T15:49:00;100277.00;;;28.00
63220;BMP180;49320;52.512;13.448;2022-09-13T15:51:27;100261.00;;;28.00
63220;BMP180;49320;52.512;13.448;2022-09-13T15:53:54;100264.00;;;28.00
63220;BMP180;49320;52.512;13.448;2022-09-13T15:56:33;100259.00;;;27.90
63220;BMP180;49320;52.512;13.448;2022-09-13T15:59:00;100271.00;;;27.90
63220;BMP180;49320;52.512;13.448;2022-09-13T16:01:26;100277.00;;;27.90
63220;BMP180;49320;52.512;13.448;2022-09-13T16:03:53;100263.00;;;27.80
63220;BMP180;49320;52.512;13.448;2022-09-13T16:06:20;100263.00;;;27.70
63220;BMP180;49320;52.512;13.448;2022-09-13T16:08:50;100270.00;;;27.70
63220;BMP180;49320;52.512;13.448;2022-09-13T16:11:17;100258.00;;;27.60
63220;BMP180;49320;52.512;13.448;2022-09-13T16:13:45;100261.00;;;27.50
63220;BMP180;49320;52.512;13.448;2022-09-13T16:16:14;100260.00;;;27.50
63220;BMP180;49320;52.512;13.448;2022-09-13T16:18:41;100257.00;;;27.50
63220;BMP180;49320;52.512;13.448;2022-09-13T16:21:09;100259.00;;;27.40
63220;BMP180;49320;52.512;13.448;2022-09-13T16:23:35;100251.00;;;27.40
63220;BMP180;49320;52.512;13.448;2022-09-13T16:26:04;100257.00;;;27.30